Wood Lake, Minnesota
Current Conditions -  °F | °C
As of 6:52 PM on Monday 22 Dec 2014 (Local Time) from KGDB Reporting Station
Light Rain Light Rain  
Wind Chill: 29°   Ceiling: 600
Heat Index: 35°   Visibility: 5mi
Dew Point: 34°   Wind: 7mph
Humidity: 97%   Direction: 70°ENE
Pressure: 29.55"   Gusts: NA
Location:  44.65°N, 95.54°W
Report Text: KGDB 230052Z AUTO 07006KT 5SM -RA BKN006 OVC009 02/01 A2955 RMK AO2 P0001 T00150010
Loading
Personal Weather Stations






























Interactive Weather Map New forecast layout! Learn more

10-Day Weather Forecast

Advertisements
Track Severe Weather on mobile